createdAt,value
2023-03-11T00:00:03.665Z,48.61
2023-03-11T00:01:03.664Z,48.21
2023-03-11T00:02:03.706Z,48.44
2023-03-11T00:03:03.655Z,48.32
2023-03-11T00:04:03.658Z,48.41
2023-03-11T00:05:03.701Z,48.41
2023-03-11T00:06:03.650Z,48.52
2023-03-11T00:07:03.648Z,48.61
2023-03-11T00:08:03.646Z,48.32
2023-03-11T00:09:03.645Z,48.52
2023-03-11T00:10:03.644Z,48.44
2023-03-11T00:11:03.646Z,48.41
2023-03-11T00:12:03.638Z,48.54
2023-03-11T00:13:03.642Z,48.94
2023-03-11T00:14:03.628Z,48.03
2023-03-11T00:15:03.632Z,48.52
2023-03-11T00:16:03.625Z,48.54
2023-03-11T00:17:03.624Z,48.34
2023-03-11T00:18:03.620Z,48.72
2023-03-11T00:19:03.624Z,48.54
2023-03-11T00:20:03.614Z,49.02
2023-03-11T00:21:03.611Z,48.54
2023-03-11T00:22:03.608Z,48.01
2023-03-11T00:23:03.620Z,48.54
2023-03-11T00:24:03.639Z,48.54
2023-03-11T00:25:03.615Z,48.54
2023-03-11T00:26:03.599Z,48.44
2023-03-11T00:27:03.602Z,48.03
2023-03-11T00:28:03.598Z,49.24
2023-03-11T00:29:03.592Z,48.74
2023-03-11T00:30:03.596Z,49.04
2023-03-11T00:31:03.643Z,48.84
2023-03-11T00:32:03.580Z,49.15
2023-03-11T00:33:03.589Z,48.84
2023-03-11T00:34:03.577Z,48.54
2023-03-11T00:35:03.574Z,48.84
2023-03-11T00:36:03.600Z,48.03
2023-03-11T00:37:03.568Z,48.03
2023-03-11T00:38:03.566Z,48.24
2023-03-11T00:39:03.566Z,49.55
2023-03-11T00:40:03.558Z,48.74
2023-03-11T00:41:03.557Z,49.24
2023-03-11T00:42:03.554Z,49.04
2023-03-11T00:43:03.560Z,48.74
2023-03-11T00:44:03.548Z,48.96
2023-03-11T00:45:03.547Z,48.76
2023-03-11T00:46:03.570Z,48.94
2023-03-11T00:47:03.543Z,49.75
2023-03-11T00:48:03.540Z,48.86
2023-03-11T00:49:03.537Z,48.86
2023-03-11T00:50:03.538Z,48.64
2023-03-11T00:51:03.529Z,48.76
2023-03-11T00:52:03.538Z,48.56
2023-03-11T00:53:03.528Z,48.44
2023-03-11T00:54:03.514Z,48.24
2023-03-11T00:55:03.518Z,48.16
2023-03-11T00:56:03.513Z,48.66
2023-03-11T00:57:03.510Z,48.86
2023-03-11T00:58:03.519Z,49.16
2023-03-11T00:59:03.505Z,48.66
2023-03-11T01:00:03.508Z,48.96
2023-03-11T01:01:03.553Z,48.76
2023-03-11T01:02:03.497Z,48.06
2023-03-11T01:03:03.509Z,48.06
2023-03-11T01:04:03.497Z,48.76
2023-03-11T01:05:03.492Z,49.16
2023-03-11T01:06:03.484Z,48.76
2023-03-11T01:07:03.482Z,49.07
2023-03-11T01:08:03.480Z,49.09
2023-03-11T01:09:03.478Z,48.96
2023-03-11T01:10:03.473Z,48.96
2023-03-11T01:11:03.480Z,48.86
2023-03-11T01:12:03.475Z,48.76
2023-03-11T01:13:03.480Z,48.86
2023-03-11T01:14:03.467Z,48.96
2023-03-11T01:15:03.466Z,48.86
2023-03-11T01:16:03.638Z,49.37
2023-03-11T01:17:03.453Z,49.90
2023-03-11T01:18:03.451Z,49.16
2023-03-11T01:19:03.452Z,49.39
2023-03-11T01:20:03.446Z,48.69
2023-03-11T01:21:03.443Z,49.09
2023-03-11T01:22:03.451Z,48.79
2023-03-11T01:23:03.583Z,49.90
2023-03-11T01:24:03.441Z,49.90
2023-03-11T01:25:03.427Z,49.39
2023-03-11T01:26:03.425Z,49.29
2023-03-11T01:27:03.424Z,49.99
2023-03-11T01:28:03.425Z,49.19
2023-03-11T01:29:03.420Z,48.79
2023-03-11T01:30:03.422Z,48.79
2023-03-11T01:31:03.454Z,49.79
2023-03-11T01:32:03.410Z,49.79
2023-03-11T01:33:03.409Z,49.49
2023-03-11T01:34:03.403Z,49.29
2023-03-11T01:35:03.398Z,48.69
2023-03-11T01:36:03.418Z,49.39
2023-03-11T01:37:03.392Z,49.90
2023-03-11T01:38:03.418Z,48.79
2023-03-11T01:39:03.388Z,48.69
2023-03-11T01:40:03.385Z,49.09
2023-03-11T01:41:03.487Z,49.79
2023-03-11T01:42:03.397Z,49.79
2023-03-11T01:43:03.392Z,49.29
2023-03-11T01:44:03.374Z,49.39
2023-03-11T01:45:03.376Z,49.59
2023-03-11T01:46:03.417Z,49.11
2023-03-11T01:47:03.374Z,49.69
2023-03-11T01:48:03.357Z,49.39
2023-03-11T01:49:03.376Z,49.90
2023-03-11T01:50:03.352Z,49.09
2023-03-11T01:51:03.350Z,49.90
2023-03-11T01:52:03.349Z,49.21
2023-03-11T01:53:03.340Z,48.58
2023-03-11T01:54:03.341Z,49.99
2023-03-11T01:55:03.333Z,48.99
2023-03-11T01:56:03.334Z,49.09
2023-03-11T01:57:03.329Z,49.69
2023-03-11T01:58:03.345Z,49.21
2023-03-11T01:59:03.332Z,49.31
2023-03-11T02:00:03.326Z,49.11
2023-03-11T02:01:03.323Z,48.91
2023-03-11T02:02:03.383Z,48.91
2023-03-11T02:03:03.459Z,48.81
2023-03-11T02:04:03.313Z,49.62
2023-03-11T02:05:03.300Z,48.91
2023-03-11T02:06:03.313Z,49.72
2023-03-11T02:07:03.300Z,49.72
2023-03-11T02:08:03.293Z,49.31
2023-03-11T02:09:03.289Z,49.92
2023-03-11T02:10:03.293Z,48.91
2023-03-11T02:11:03.287Z,48.91
2023-03-11T02:12:03.286Z,48.61
2023-03-11T02:13:03.294Z,49.41
2023-03-11T02:14:03.285Z,49.01
2023-03-11T02:15:03.281Z,48.50
2023-03-11T02:16:03.331Z,49.41
2023-03-11T02:17:03.276Z,48.61
2023-03-11T02:18:03.270Z,48.61
2023-03-11T02:19:03.263Z,49.72
2023-03-11T02:20:03.274Z,48.61
2023-03-11T02:21:03.263Z,49.11
2023-03-11T02:22:03.257Z,48.61
2023-03-11T02:23:03.261Z,48.81
2023-03-11T02:24:03.252Z,49.01
2023-03-11T02:25:03.259Z,48.91
2023-03-11T02:26:03.248Z,48.71
2023-03-11T02:27:03.244Z,47.90
2023-03-11T02:28:03.244Z,48.91
2023-03-11T02:29:03.236Z,48.81
2023-03-11T02:30:03.234Z,48.91
2023-03-11T02:31:03.260Z,49.31
2023-03-11T02:32:03.232Z,49.01
2023-03-11T02:33:03.226Z,48.91
2023-03-11T02:34:03.222Z,50.12
2023-03-11T02:35:03.218Z,49.31
2023-03-11T02:36:03.254Z,49.31
2023-03-11T02:37:03.211Z,49.21
2023-03-11T02:38:03.212Z,48.81
2023-03-11T02:39:03.205Z,49.82
2023-03-11T02:40:03.203Z,49.62
2023-03-11T02:41:03.218Z,49.82
2023-03-11T02:42:03.195Z,49.41
2023-03-11T02:43:03.195Z,49.74
2023-03-11T02:44:03.194Z,49.44
2023-03-11T02:45:03.189Z,49.52
2023-03-11T02:46:03.182Z,49.74
2023-03-11T02:47:03.213Z,49.04
2023-03-11T02:48:03.184Z,49.74
2023-03-11T02:49:03.168Z,49.94
2023-03-11T02:50:03.168Z,50.04
2023-03-11T02:51:03.170Z,48.93
2023-03-11T02:52:03.167Z,49.44
2023-03-11T02:53:03.158Z,49.84
2023-03-11T02:54:03.151Z,49.44
2023-03-11T02:55:03.151Z,49.54
2023-03-11T02:56:03.142Z,49.74
2023-03-11T02:57:03.138Z,49.74
2023-03-11T02:58:03.136Z,49.74
2023-03-11T02:59:03.137Z,49.44
2023-03-11T03:00:03.130Z,49.44
2023-03-11T03:01:03.204Z,48.93
2023-03-11T03:02:03.121Z,49.33
2023-03-11T03:03:03.120Z,50.15
2023-03-11T03:04:03.146Z,49.24
2023-03-11T03:05:03.113Z,49.74
2023-03-11T03:06:03.109Z,49.54
2023-03-11T03:07:03.107Z,49.44
2023-03-11T03:08:03.104Z,49.44
2023-03-11T03:09:03.098Z,49.74
2023-03-11T03:10:03.127Z,49.54
2023-03-11T03:11:03.094Z,49.54
2023-03-11T03:12:03.094Z,49.24
2023-03-11T03:13:03.093Z,49.33
2023-03-11T03:14:03.085Z,49.13
2023-03-11T03:15:03.075Z,49.94
2023-03-11T03:16:03.178Z,49.24
2023-03-11T03:17:03.210Z,49.74
2023-03-11T03:18:03.065Z,49.44
2023-03-11T03:19:03.063Z,49.64
2023-03-11T03:20:03.059Z,49.84
2023-03-11T03:21:03.058Z,49.54
2023-03-11T03:22:03.062Z,49.44
2023-03-11T03:23:03.055Z,49.64
2023-03-11T03:24:03.048Z,49.33
2023-03-11T03:25:03.115Z,49.44
2023-03-11T03:26:03.049Z,49.33
2023-03-11T03:27:03.047Z,49.96
2023-03-11T03:28:03.034Z,49.54
2023-03-11T03:29:03.033Z,49.46
2023-03-11T03:30:03.029Z,49.74
2023-03-11T03:31:03.039Z,49.66
2023-03-11T03:32:03.066Z,49.26
2023-03-11T03:33:03.016Z,49.44
2023-03-11T03:34:03.011Z,49.76
2023-03-11T03:35:03.011Z,49.46
2023-03-11T03:36:03.066Z,49.46
2023-03-11T03:37:03.003Z,49.46
2023-03-11T03:38:03.007Z,50.16
2023-03-11T03:39:02.998Z,49.46
2023-03-11T03:40:03.002Z,49.46
2023-03-11T03:41:02.989Z,49.56
2023-03-11T03:42:02.988Z,50.78
2023-03-11T03:43:02.983Z,49.87
2023-03-11T03:44:02.978Z,49.56
2023-03-11T03:45:03.000Z,49.56
2023-03-11T03:46:03.072Z,49.56
2023-03-11T03:47:02.977Z,49.76
2023-03-11T03:48:02.966Z,49.87
2023-03-11T03:49:02.972Z,50.16
2023-03-11T03:50:02.965Z,49.66
2023-03-11T03:51:02.955Z,49.96
2023-03-11T03:52:02.984Z,49.46
2023-03-11T03:53:02.946Z,49.56
2023-03-11T03:54:02.941Z,49.56
2023-03-11T03:55:02.941Z,49.46
2023-03-11T03:56:02.940Z,49.76
2023-03-11T03:57:02.934Z,49.56
2023-03-11T03:58:02.928Z,49.36
2023-03-11T03:59:02.936Z,49.46
2023-03-11T04:00:02.944Z,49.76
2023-03-11T04:01:02.922Z,50.16
2023-03-11T04:02:02.967Z,49.96
2023-03-11T04:03:03.023Z,49.66
2023-03-11T04:04:02.913Z,49.56
2023-03-11T04:05:02.908Z,49.87
2023-03-11T04:06:02.903Z,49.36
2023-03-11T04:07:02.903Z,49.66
2023-03-11T04:08:02.899Z,49.56
2023-03-11T04:09:02.908Z,49.36
2023-03-11T04:10:02.889Z,49.96
2023-03-11T04:11:02.886Z,49.46
2023-03-11T04:12:02.881Z,49.56
2023-03-11T04:13:02.892Z,49.46
2023-03-11T04:14:02.876Z,49.48
2023-03-11T04:15:02.872Z,49.76
2023-03-11T04:16:02.871Z,49.46
2023-03-11T04:17:02.880Z,50.16
2023-03-11T04:18:02.864Z,49.36
2023-03-11T04:19:02.862Z,49.58
2023-03-11T04:20:02.856Z,50.27
2023-03-11T04:21:02.852Z,50.29
2023-03-11T04:22:02.849Z,50.09
2023-03-11T04:23:02.854Z,49.56
2023-03-11T04:24:02.840Z,49.89
2023-03-11T04:25:02.847Z,50.16
2023-03-11T04:26:02.834Z,49.58
2023-03-11T04:27:02.840Z,49.69
2023-03-11T04:28:02.826Z,49.58
2023-03-11T04:29:02.824Z,49.48
2023-03-11T04:30:02.818Z,49.58
2023-03-11T04:31:02.899Z,49.58
2023-03-11T04:32:02.812Z,50.29
2023-03-11T04:33:02.858Z,49.79
2023-03-11T04:34:02.801Z,49.79
2023-03-11T04:35:02.797Z,49.58
2023-03-11T04:36:02.818Z,49.58
2023-03-11T04:37:02.797Z,50.19
2023-03-11T04:38:02.783Z,49.99
2023-03-11T04:39:02.779Z,49.48
2023-03-11T04:40:02.776Z,49.58
2023-03-11T04:41:02.770Z,49.38
2023-03-11T04:42:04.052Z,49.48
2023-03-11T04:43:02.765Z,49.58
2023-03-11T04:44:02.768Z,49.48
2023-03-11T04:45:02.772Z,49.58
2023-03-11T04:46:02.795Z,49.99
2023-03-11T04:47:02.763Z,49.58
2023-03-11T04:48:02.752Z,49.99
2023-03-11T04:49:02.749Z,49.79
2023-03-11T04:50:02.738Z,49.79
2023-03-11T04:51:02.734Z,49.58
2023-03-11T04:52:02.730Z,50.09
2023-03-11T04:53:02.731Z,49.38
2023-03-11T04:54:02.722Z,49.48
2023-03-11T04:55:02.723Z,49.48
2023-03-11T04:56:02.716Z,49.69
2023-03-11T04:57:02.710Z,50.49
2023-03-11T04:58:02.718Z,50.19
2023-03-11T04:59:02.709Z,49.28
2023-03-11T05:00:02.709Z,49.58
2023-03-11T05:01:02.697Z,49.58
2023-03-11T05:02:02.689Z,50.01
2023-03-11T05:03:02.757Z,49.58
2023-03-11T05:04:02.692Z,49.30
2023-03-11T05:05:02.689Z,49.61
2023-03-11T05:06:02.689Z,49.41
2023-03-11T05:07:02.672Z,49.71
2023-03-11T05:08:02.670Z,49.58
2023-03-11T05:09:02.666Z,50.09
2023-03-11T05:10:02.672Z,49.71
2023-03-11T05:11:02.658Z,49.79
2023-03-11T05:12:02.659Z,49.28
2023-03-11T05:13:02.657Z,49.41
2023-03-11T05:14:02.648Z,49.61
2023-03-11T05:15:02.645Z,49.48
2023-03-11T05:16:02.696Z,49.61
2023-03-11T05:17:02.636Z,49.41
2023-03-11T05:18:02.634Z,50.09
2023-03-11T05:19:02.634Z,49.38
2023-03-11T05:20:02.625Z,49.99
2023-03-11T05:21:02.621Z,49.38
2023-03-11T05:22:02.623Z,49.58
2023-03-11T05:23:02.614Z,49.38
2023-03-11T05:24:02.622Z,49.89
2023-03-11T05:25:02.604Z,49.69
2023-03-11T05:26:02.646Z,49.89
2023-03-11T05:27:02.600Z,50.32
2023-03-11T05:28:02.597Z,49.61
2023-03-11T05:29:02.590Z,49.58
2023-03-11T05:30:02.603Z,49.61
2023-03-11T05:31:02.688Z,49.81
2023-03-11T05:32:02.579Z,49.61
2023-03-11T05:33:02.574Z,49.51
2023-03-11T05:34:02.571Z,49.10
2023-03-11T05:35:02.574Z,50.39
2023-03-11T05:36:02.650Z,49.91
2023-03-11T05:37:03.303Z,49.81
2023-03-11T05:38:02.562Z,49.81
2023-03-11T05:39:02.555Z,49.91
2023-03-11T05:40:02.551Z,49.91
2023-03-11T05:41:02.550Z,50.01
2023-03-11T05:42:02.547Z,50.29
2023-03-11T05:43:02.543Z,49.61
2023-03-11T05:44:02.539Z,49.61
2023-03-11T05:45:02.598Z,49.61
2023-03-11T05:46:02.655Z,49.61
2023-03-11T05:47:02.629Z,49.61
2023-03-11T05:48:02.589Z,49.71
2023-03-11T05:49:02.521Z,49.81
2023-03-11T05:50:02.517Z,49.61
2023-03-11T05:51:02.517Z,49.58
2023-03-11T05:52:02.518Z,50.49
2023-03-11T05:53:02.509Z,50.32
2023-03-11T05:54:02.502Z,50.32
2023-03-11T05:55:02.498Z,51.32
2023-03-11T05:56:02.616Z,50.72
2023-03-11T05:57:02.495Z,50.62
2023-03-11T05:58:02.573Z,50.52
2023-03-11T05:59:02.479Z,50.80
2023-03-11T06:00:02.477Z,50.82
2023-03-11T06:01:02.470Z,51.20
2023-03-11T06:02:02.513Z,50.82
2023-03-11T06:03:02.465Z,51.10
2023-03-11T06:04:02.539Z,51.10
2023-03-11T06:05:02.585Z,51.23
2023-03-11T06:06:02.541Z,51.32
2023-03-11T06:07:02.449Z,51.20
2023-03-11T06:08:02.445Z,51.10
2023-03-11T06:09:02.437Z,50.80
2023-03-11T06:10:02.434Z,50.90
2023-03-11T06:11:02.438Z,50.59
2023-03-11T06:12:02.427Z,50.70
2023-03-11T06:13:02.425Z,49.89
2023-03-11T06:14:02.423Z,50.29
2023-03-11T06:15:02.417Z,50.70
2023-03-11T06:16:02.458Z,50.49
2023-03-11T06:17:02.400Z,50.80
2023-03-11T06:18:02.412Z,49.48
2023-03-11T06:19:02.400Z,50.29
2023-03-11T06:20:02.396Z,50.49
2023-03-11T06:21:02.390Z,49.66
2023-03-11T06:22:02.388Z,49.38
2023-03-11T06:23:02.384Z,49.16
2023-03-11T06:24:02.380Z,49.66
2023-03-11T06:25:02.429Z,48.75
2023-03-11T06:26:02.371Z,49.66
2023-03-11T06:27:02.370Z,49.56
2023-03-11T06:28:02.373Z,49.66
2023-03-11T06:29:02.377Z,49.96
2023-03-11T06:30:02.357Z,49.46
2023-03-11T06:31:02.356Z,49.36
2023-03-11T06:32:02.351Z,49.76
2023-03-11T06:33:02.348Z,51.28
2023-03-11T06:34:02.343Z,50.07
2023-03-11T06:35:02.348Z,49.46
2023-03-11T06:36:02.524Z,49.66
2023-03-11T06:37:02.333Z,50.16
2023-03-11T06:38:02.330Z,49.26
2023-03-11T06:39:02.323Z,49.84
2023-03-11T06:40:02.323Z,49.26
2023-03-11T06:41:02.321Z,50.27
2023-03-11T06:42:02.328Z,49.94
2023-03-11T06:43:02.314Z,48.93
2023-03-11T06:44:02.318Z,49.94
2023-03-11T06:45:02.305Z,49.84
2023-03-11T06:46:02.341Z,49.13
2023-03-11T06:47:02.315Z,50.04
2023-03-11T06:48:02.291Z,49.44
2023-03-11T06:49:02.291Z,50.04
2023-03-11T06:50:02.305Z,49.74
2023-03-11T06:51:02.288Z,50.04
2023-03-11T06:52:02.278Z,49.64
2023-03-11T06:53:02.274Z,50.15
2023-03-11T06:54:02.269Z,49.04
2023-03-11T06:55:02.269Z,48.93
2023-03-11T06:56:02.268Z,48.83
2023-03-11T06:57:02.259Z,49.13
2023-03-11T06:58:02.256Z,49.13
2023-03-11T06:59:02.266Z,49.13
2023-03-11T07:00:02.271Z,49.13
2023-03-11T07:01:02.262Z,49.94
2023-03-11T07:02:02.243Z,49.64
2023-03-11T07:03:02.241Z,49.84
2023-03-11T07:04:02.273Z,49.41
2023-03-11T07:05:02.235Z,49.92
2023-03-11T07:06:02.230Z,49.72
2023-03-11T07:07:02.221Z,49.72
2023-03-11T07:08:02.221Z,49.11
2023-03-11T07:09:02.230Z,49.01
2023-03-11T07:10:02.213Z,49.41
2023-03-11T07:11:02.211Z,48.50
2023-03-11T07:12:02.206Z,49.01
2023-03-11T07:13:02.206Z,49.21
2023-03-11T07:14:02.201Z,49.11
2023-03-11T07:15:02.201Z,48.91
2023-03-11T07:16:02.199Z,48.71
2023-03-11T07:17:02.356Z,49.11
2023-03-11T07:18:02.186Z,48.61
2023-03-11T07:19:02.183Z,49.31
2023-03-11T07:20:02.183Z,48.71
2023-03-11T07:21:02.176Z,49.41
2023-03-11T07:22:02.180Z,48.10
2023-03-11T07:23:02.188Z,48.10
2023-03-11T07:24:02.170Z,49.11
2023-03-11T07:25:02.164Z,49.11
2023-03-11T07:26:02.165Z,48.91
2023-03-11T07:27:02.161Z,48.81
2023-03-11T07:28:02.152Z,48.81
2023-03-11T07:29:02.152Z,48.50
2023-03-11T07:30:02.147Z,48.10
2023-03-11T07:31:02.143Z,49.62
2023-03-11T07:32:02.183Z,48.28
2023-03-11T07:33:02.148Z,48.50
2023-03-11T07:34:02.136Z,48.61
2023-03-11T07:35:02.130Z,48.50
2023-03-11T07:36:02.153Z,48.91
2023-03-11T07:37:02.136Z,48.81
2023-03-11T07:38:02.129Z,48.49
2023-03-11T07:39:04.149Z,48.81
2023-03-11T07:40:02.111Z,48.49
2023-03-11T07:41:02.111Z,48.79
2023-03-11T07:42:02.114Z,47.98
2023-03-11T07:43:02.103Z,48.91
2023-03-11T07:44:02.108Z,49.69
2023-03-11T07:45:02.096Z,48.61
2023-03-11T07:46:02.181Z,48.08
2023-03-11T07:47:02.112Z,48.89
2023-03-11T07:48:02.087Z,48.99
2023-03-11T07:49:02.090Z,48.89
2023-03-11T07:50:02.115Z,49.79
2023-03-11T07:51:02.084Z,48.58
2023-03-11T07:52:02.093Z,49.79
2023-03-11T07:53:02.082Z,49.79
2023-03-11T07:54:02.065Z,49.79
2023-03-11T07:55:02.083Z,49.49
2023-03-11T07:56:02.071Z,49.19
2023-03-11T07:57:02.057Z,49.19
2023-03-11T07:58:02.057Z,49.90
2023-03-11T07:59:02.052Z,48.89
2023-03-11T08:00:02.046Z,48.69
2023-03-11T08:01:02.048Z,49.79
2023-03-11T08:02:02.060Z,48.89
2023-03-11T08:03:02.035Z,48.79
2023-03-11T08:04:02.066Z,48.49
2023-03-11T08:05:02.031Z,48.08
2023-03-11T08:06:02.039Z,48.58
2023-03-11T08:07:02.025Z,49.59
2023-03-11T08:08:02.024Z,48.69
2023-03-11T08:09:02.020Z,48.89
2023-03-11T08:10:02.015Z,48.99
2023-03-11T08:11:02.016Z,48.96
2023-03-11T08:12:02.010Z,49.09
2023-03-11T08:13:02.020Z,49.09
2023-03-11T08:14:02.009Z,49.09
2023-03-11T08:15:02.003Z,48.99
2023-03-11T08:16:02.036Z,49.39
2023-03-11T08:17:01.998Z,49.47
2023-03-11T08:18:01.994Z,49.07
2023-03-11T08:19:02.015Z,48.58
2023-03-11T08:20:02.009Z,48.96
2023-03-11T08:21:01.984Z,48.76
2023-03-11T08:22:01.980Z,47.88
2023-03-11T08:23:01.990Z,48.56
2023-03-11T08:24:02.066Z,48.26
2023-03-11T08:25:01.972Z,50.48
2023-03-11T08:26:01.968Z,48.36
2023-03-11T08:27:01.966Z,48.46
2023-03-11T08:28:01.965Z,48.26
2023-03-11T08:29:01.965Z,49.16
2023-03-11T08:30:01.982Z,48.56
2023-03-11T08:31:02.025Z,48.26
2023-03-11T08:32:01.953Z,48.16
2023-03-11T08:33:01.948Z,48.66
2023-03-11T08:34:01.945Z,48.06
2023-03-11T08:35:01.980Z,48.56
2023-03-11T08:36:01.985Z,48.66
2023-03-11T08:37:01.946Z,48.36
2023-03-11T08:38:01.934Z,48.96
2023-03-11T08:39:02.125Z,48.26
2023-03-11T08:40:01.949Z,48.46
2023-03-11T08:41:01.924Z,48.46
2023-03-11T08:42:01.922Z,48.26
2023-03-11T08:43:01.922Z,48.76
2023-03-11T08:44:01.922Z,48.06
2023-03-11T08:45:01.939Z,48.46
2023-03-11T08:46:01.993Z,48.16
2023-03-11T08:47:01.905Z,48.36
2023-03-11T08:48:01.905Z,48.06
2023-03-11T08:49:01.901Z,48.46
2023-03-11T08:50:01.898Z,47.83
2023-03-11T08:51:01.897Z,47.55
2023-03-11T08:52:01.899Z,47.75
2023-03-11T08:53:01.892Z,47.25
2023-03-11T08:54:01.893Z,48.06
2023-03-11T08:55:01.885Z,47.45
2023-03-11T08:56:01.879Z,47.45
2023-03-11T08:57:01.875Z,47.63
2023-03-11T08:58:01.884Z,47.83
2023-03-11T08:59:01.875Z,47.75
2023-03-11T09:00:01.876Z,47.83
2023-03-11T09:01:01.867Z,47.33
2023-03-11T09:02:01.866Z,48.14
2023-03-11T09:03:01.888Z,47.53
2023-03-11T09:04:01.875Z,47.45
2023-03-11T09:05:01.855Z,49.07
2023-03-11T09:06:01.972Z,47.74
2023-03-11T09:07:01.850Z,47.94
2023-03-11T09:08:02.899Z,47.63
2023-03-11T09:09:01.852Z,47.23
2023-03-11T09:10:01.842Z,47.13
2023-03-11T09:11:01.841Z,47.96
2023-03-11T09:12:01.836Z,47.74
2023-03-11T09:13:01.866Z,48.84
2023-03-11T09:14:01.829Z,47.13
2023-03-11T09:15:01.828Z,47.94
2023-03-11T09:16:01.850Z,47.74
2023-03-11T09:17:01.825Z,47.86
2023-03-11T09:18:01.818Z,47.63
2023-03-11T09:19:01.814Z,47.23
2023-03-11T09:20:01.821Z,47.43
2023-03-11T09:21:01.835Z,47.13
2023-03-11T09:22:01.809Z,47.03
2023-03-11T09:23:01.806Z,47.13
2023-03-11T09:24:01.802Z,46.93
2023-03-11T09:25:01.802Z,46.42
2023-03-11T09:26:01.832Z,47.43
2023-03-11T09:27:01.796Z,47.23
2023-03-11T09:28:01.795Z,47.94
2023-03-11T09:29:01.790Z,47.03
2023-03-11T09:30:01.787Z,47.03
2023-03-11T09:31:01.857Z,47.94
2023-03-11T09:32:01.786Z,47.63
2023-03-11T09:33:01.781Z,47.53
2023-03-11T09:34:01.781Z,47.66
2023-03-11T09:35:01.780Z,48.14
2023-03-11T09:36:01.815Z,47.74
2023-03-11T09:37:01.777Z,47.94
2023-03-11T09:38:01.781Z,47.74
2023-03-11T09:39:01.766Z,47.13
2023-03-11T09:40:01.764Z,48.24
2023-03-11T09:41:01.761Z,47.53
2023-03-11T09:42:01.757Z,47.43
2023-03-11T09:43:01.758Z,47.74
2023-03-11T09:44:01.764Z,47.74
2023-03-11T09:45:01.765Z,47.33
2023-03-11T09:46:01.751Z,47.63
2023-03-11T09:47:01.793Z,47.63
2023-03-11T09:48:01.747Z,47.74
2023-03-11T09:49:01.739Z,47.63
2023-03-11T09:50:01.741Z,48.03
2023-03-11T09:51:01.734Z,47.43
2023-03-11T09:52:01.740Z,48.03
2023-03-11T09:53:01.735Z,47.53
2023-03-11T09:54:01.731Z,47.94
2023-03-11T09:55:01.725Z,48.03
2023-03-11T09:56:01.720Z,48.14
2023-03-11T09:57:01.718Z,48.14
2023-03-11T09:58:01.714Z,47.63
2023-03-11T09:59:01.711Z,48.26
2023-03-11T10:00:01.711Z,47.83
2023-03-11T10:01:01.714Z,48.03
2023-03-11T10:02:01.715Z,48.24
2023-03-11T10:03:01.707Z,47.74
2023-03-11T10:04:01.714Z,47.94
2023-03-11T10:05:01.699Z,47.03
2023-03-11T10:06:01.746Z,47.83
2023-03-11T10:07:01.691Z,47.74
2023-03-11T10:08:01.689Z,47.63
2023-03-11T10:09:01.685Z,47.13
2023-03-11T10:10:01.691Z,47.74
2023-03-11T10:11:01.680Z,48.03
2023-03-11T10:12:01.677Z,47.63
2023-03-11T10:13:01.680Z,47.63
2023-03-11T10:14:01.673Z,47.83
2023-03-11T10:15:01.670Z,47.23
2023-03-11T10:16:01.691Z,47.33
2023-03-11T10:17:01.662Z,47.53
2023-03-11T10:18:01.715Z,47.63
2023-03-11T10:19:01.659Z,48.03
2023-03-11T10:20:01.659Z,46.83
2023-03-11T10:21:01.673Z,47.23
2023-03-11T10:22:01.656Z,47.83
2023-03-11T10:23:01.648Z,47.53
2023-03-11T10:24:01.648Z,47.74
2023-03-11T10:25:01.662Z,47.81
2023-03-11T10:26:01.648Z,48.03
2023-03-11T10:27:01.691Z,48.32
2023-03-11T10:28:01.644Z,47.61
2023-03-11T10:29:01.632Z,47.81
2023-03-11T10:30:01.647Z,48.21
2023-03-11T10:31:01.625Z,48.01
2023-03-11T10:32:01.686Z,47.81
2023-03-11T10:33:01.624Z,48.21
2023-03-11T10:34:01.639Z,48.01
2023-03-11T10:35:01.651Z,48.32
2023-03-11T10:36:01.667Z,47.81
2023-03-11T10:37:01.614Z,48.03
2023-03-11T10:38:01.611Z,48.11
2023-03-11T10:39:01.610Z,47.83
2023-03-11T10:40:01.606Z,47.71
2023-03-11T10:41:01.620Z,47.51
2023-03-11T10:42:01.605Z,47.74
2023-03-11T10:43:01.597Z,47.43
2023-03-11T10:44:01.599Z,47.43
2023-03-11T10:45:01.598Z,48.32
2023-03-11T10:46:01.655Z,47.63
2023-03-11T10:47:01.588Z,47.23
2023-03-11T10:48:01.585Z,47.63
2023-03-11T10:49:01.589Z,47.43
2023-03-11T10:50:01.580Z,47.74
2023-03-11T10:51:01.656Z,47.83
2023-03-11T10:52:01.575Z,47.63
2023-03-11T10:53:01.575Z,47.74
2023-03-11T10:54:01.568Z,47.94
2023-03-11T10:55:01.567Z,48.24
2023-03-11T10:56:01.564Z,48.03
2023-03-11T10:57:01.564Z,47.83
2023-03-11T10:58:01.560Z,47.83
2023-03-11T10:59:01.564Z,47.63
2023-03-11T11:00:01.554Z,48.03
2023-03-11T11:01:01.616Z,47.63
2023-03-11T11:02:01.563Z,47.94
2023-03-11T11:03:01.553Z,47.53
2023-03-11T11:04:01.612Z,47.74
2023-03-11T11:05:01.551Z,47.43
2023-03-11T11:06:01.547Z,48.94
2023-03-11T11:07:01.551Z,47.74
2023-03-11T11:08:01.537Z,47.53
2023-03-11T11:09:01.534Z,47.74
2023-03-11T11:10:01.532Z,48.24
2023-03-11T11:11:01.541Z,47.83
2023-03-11T11:12:01.528Z,47.53
2023-03-11T11:13:01.525Z,47.83
2023-03-11T11:14:01.530Z,47.63
2023-03-11T11:15:01.523Z,47.63
2023-03-11T11:16:01.539Z,47.94
2023-03-11T11:17:01.579Z,47.53
2023-03-11T11:18:01.513Z,47.74
2023-03-11T11:19:01.518Z,48.03
2023-03-11T11:20:01.515Z,47.13
2023-03-11T11:21:01.515Z,47.94
2023-03-11T11:22:01.506Z,48.14
2023-03-11T11:23:01.516Z,47.43
2023-03-11T11:24:01.500Z,47.03
2023-03-11T11:25:01.531Z,47.63
2023-03-11T11:26:01.510Z,47.74
2023-03-11T11:27:01.491Z,47.03
2023-03-11T11:28:01.497Z,47.13
2023-03-11T11:29:01.485Z,47.13
2023-03-11T11:30:01.487Z,47.23
2023-03-11T11:31:01.527Z,47.74
2023-03-11T11:32:01.478Z,47.74
2023-03-11T11:33:01.497Z,47.23
2023-03-11T11:34:01.473Z,47.43
2023-03-11T11:35:01.505Z,48.14
2023-03-11T11:36:08.629Z,46.93
2023-03-11T11:38:05.474Z,46.93
2023-03-11T11:39:05.478Z,47.94
2023-03-11T11:41:09.467Z,47.63
2023-03-11T11:42:09.458Z,47.23
2023-03-11T11:44:13.456Z,47.13
2023-03-11T11:45:13.664Z,47.33
2023-03-11T11:47:06.531Z,47.03
2023-03-11T11:48:06.367Z,47.94
2023-03-11T11:50:10.365Z,47.13
2023-03-11T11:51:10.357Z,47.63
2023-03-11T11:53:03.470Z,47.83
2023-03-11T11:54:03.453Z,47.71
2023-03-11T11:56:07.433Z,47.43
2023-03-11T11:57:07.429Z,47.63
2023-03-11T11:59:11.433Z,47.74
2023-03-11T12:00:11.416Z,48.24
2023-03-11T12:02:04.833Z,48.24
2023-03-11T12:03:04.822Z,48.54
2023-03-11T12:05:08.828Z,47.74
2023-03-11T12:06:08.797Z,47.94
2023-03-11T12:08:12.805Z,47.53
2023-03-11T12:09:12.796Z,47.74
2023-03-11T12:11:16.792Z,48.03
2023-03-11T12:12:16.786Z,48.24
2023-03-11T12:14:20.792Z,47.63
2023-03-11T12:15:20.783Z,47.94
2023-03-11T12:17:13.713Z,47.74
2023-03-11T12:18:13.709Z,48.03
2023-03-11T12:20:17.704Z,47.83
2023-03-11T12:21:17.699Z,47.53
2023-03-11T12:23:21.716Z,47.83
2023-03-11T12:24:21.697Z,48.24
2023-03-11T12:26:14.796Z,47.74
2023-03-11T12:27:14.796Z,48.14
2023-03-11T12:29:18.796Z,47.83
2023-03-11T12:30:18.783Z,48.03
2023-03-11T12:32:22.848Z,47.83
2023-03-11T12:33:22.781Z,47.83
2023-03-11T12:35:26.786Z,48.84
2023-03-11T12:36:26.778Z,47.83
2023-03-11T12:38:30.784Z,48.03
2023-03-11T12:39:30.768Z,48.03
2023-03-11T12:41:23.877Z,47.74
2023-03-11T12:42:23.867Z,48.03
2023-03-11T12:44:27.877Z,48.24
2023-03-11T12:45:27.863Z,47.63
2023-03-11T12:47:20.790Z,48.24
2023-03-11T12:48:20.775Z,48.34
2023-03-11T12:50:24.765Z,47.53
2023-03-11T12:51:24.750Z,47.74
2023-03-11T12:53:28.754Z,47.83
2023-03-11T12:54:28.738Z,48.34
2023-03-11T12:56:21.659Z,47.83
2023-03-11T12:57:21.660Z,47.83
2023-03-11T12:59:25.664Z,47.83
2023-03-11T13:00:25.655Z,47.63
2023-03-11T13:02:29.716Z,47.83
2023-03-11T13:03:29.700Z,47.83
2023-03-11T13:05:33.657Z,47.55
2023-03-11T13:06:33.650Z,48.03
2023-03-11T13:08:37.641Z,48.14
2023-03-11T13:09:37.629Z,47.74
2023-03-11T13:11:30.737Z,48.14
2023-03-11T13:12:30.729Z,47.74
2023-03-11T13:14:23.841Z,48.03
2023-03-11T13:15:23.831Z,47.53
2023-03-11T13:17:16.747Z,48.36
2023-03-11T13:18:16.732Z,48.36
2023-03-11T13:20:09.866Z,47.94
2023-03-11T13:21:09.849Z,47.74
2023-03-11T13:23:13.883Z,48.54
2023-03-11T13:24:13.822Z,47.53
2023-03-11T13:26:06.931Z,47.83
2023-03-11T13:27:06.931Z,48.06
2023-03-11T13:29:00.039Z,47.86
2023-03-11T13:30:00.030Z,48.24